createdAt,value
2018-12-19T00:00:56.502Z,99.99
2018-12-19T00:01:56.518Z,99.99
2018-12-19T00:02:56.529Z,99.99
2018-12-19T00:03:56.548Z,99.99
2018-12-19T00:04:56.559Z,99.99
2018-12-19T00:05:56.579Z,99.99
2018-12-19T00:06:56.591Z,99.99
2018-12-19T00:07:56.608Z,99.99
2018-12-19T00:09:03.002Z,99.99
2018-12-19T00:09:56.636Z,99.99
2018-12-19T00:10:56.648Z,99.99
2018-12-19T00:11:56.663Z,99.99
2018-12-19T00:12:56.681Z,99.99
2018-12-19T00:13:56.692Z,99.99
2018-12-19T00:14:56.707Z,99.99
2018-12-19T00:15:56.723Z,99.99
2018-12-19T00:16:56.740Z,99.99
2018-12-19T00:17:56.752Z,99.99
2018-12-19T00:18:56.768Z,99.99
2018-12-19T00:19:56.782Z,99.99
2018-12-19T00:20:56.798Z,99.99
2018-12-19T00:21:56.814Z,99.99
2018-12-19T00:22:56.828Z,99.99
2018-12-19T00:23:56.841Z,99.99
2018-12-19T00:24:56.855Z,99.99
2018-12-19T00:25:56.872Z,99.99
2018-12-19T00:26:56.887Z,99.99
2018-12-19T00:27:56.900Z,99.99
2018-12-19T00:28:56.917Z,99.99
2018-12-19T00:29:56.931Z,99.99
2018-12-19T00:30:56.944Z,99.99
2018-12-19T00:31:56.959Z,99.99
2018-12-19T00:32:56.976Z,99.99
2018-12-19T00:33:56.989Z,99.99
2018-12-19T00:34:57.006Z,99.99
2018-12-19T00:35:57.022Z,99.99
2018-12-19T00:36:57.036Z,99.99
2018-12-19T00:37:57.050Z,99.99
2018-12-19T00:38:57.065Z,99.99
2018-12-19T00:39:57.080Z,99.99
2018-12-19T00:40:57.095Z,99.99
2018-12-19T00:41:57.110Z,99.99
2018-12-19T00:42:57.125Z,99.99
2018-12-19T00:43:57.140Z,99.99
2018-12-19T00:44:57.154Z,99.99
2018-12-19T00:45:57.173Z,99.99
2018-12-19T00:46:57.185Z,99.96
2018-12-19T00:47:57.197Z,99.99
2018-12-19T00:48:57.214Z,99.99
2018-12-19T00:49:57.230Z,99.99
2018-12-19T00:50:57.243Z,99.99
2018-12-19T00:51:57.257Z,99.99
2018-12-19T00:52:57.271Z,99.99
2018-12-19T00:53:57.290Z,99.99
2018-12-19T00:54:57.304Z,99.99
2018-12-19T00:55:57.320Z,99.44
2018-12-19T00:56:57.330Z,99.49
2018-12-19T00:57:57.345Z,99.35
2018-12-19T00:58:57.376Z,99.49
2018-12-19T00:59:57.388Z,99.73
2018-12-19T01:00:57.391Z,99.58
2018-12-19T01:01:57.406Z,99.35
2018-12-19T01:02:57.421Z,99.39
2018-12-19T01:03:57.440Z,98.97
2018-12-19T01:04:57.454Z,99.35
2018-12-19T01:05:57.467Z,99.16
2018-12-19T01:06:57.484Z,99.26
2018-12-19T01:07:57.498Z,98.40
2018-12-19T01:08:57.512Z,98.68
2018-12-19T01:09:57.527Z,98.11
2018-12-19T01:10:57.542Z,98.02
2018-12-19T01:11:57.557Z,98.30
2018-12-19T01:12:57.570Z,97.92
2018-12-19T01:13:57.587Z,97.83
2018-12-19T01:14:57.600Z,97.83
2018-12-19T01:15:57.615Z,96.97
2018-12-19T01:16:57.631Z,96.97
2018-12-19T01:17:57.646Z,97.07
2018-12-19T01:18:57.663Z,97.07
2018-12-19T01:19:57.678Z,97.36
2018-12-19T01:20:57.690Z,97.45
2018-12-19T01:21:57.705Z,97.36
2018-12-19T01:22:57.722Z,97.07
2018-12-19T01:23:57.736Z,97.36
2018-12-19T01:24:57.750Z,97.26
2018-12-19T01:25:57.764Z,96.59
2018-12-19T01:26:57.783Z,96.31
2018-12-19T01:27:57.795Z,96.31
2018-12-19T01:28:57.810Z,96.59
2018-12-19T01:29:57.825Z,96.69
2018-12-19T01:30:57.840Z,96.78
2018-12-19T01:31:57.860Z,96.78
2018-12-19T01:32:57.872Z,96.97
2018-12-19T01:33:57.887Z,96.50
2018-12-19T01:34:57.900Z,96.31
2018-12-19T01:35:57.916Z,96.69
2018-12-19T01:36:57.933Z,96.78
2018-12-19T01:37:57.945Z,96.41
2018-12-19T01:38:57.964Z,96.69
2018-12-19T01:39:57.978Z,96.12
2018-12-19T01:40:57.990Z,96.69
2018-12-19T01:41:58.009Z,96.59
2018-12-19T01:42:58.021Z,96.50
2018-12-19T01:43:58.037Z,96.88
2018-12-19T01:44:58.060Z,96.22
2018-12-19T01:45:58.068Z,96.31
2018-12-19T01:46:58.081Z,96.31
2018-12-19T01:47:58.097Z,96.03
2018-12-19T01:48:58.113Z,96.69
2018-12-19T01:49:58.129Z,96.59
2018-12-19T01:50:58.149Z,95.84
2018-12-19T01:51:58.157Z,96.22
2018-12-19T01:52:58.176Z,96.31
2018-12-19T01:53:58.189Z,96.03
2018-12-19T01:54:58.202Z,96.03
2018-12-19T01:55:58.219Z,96.03
2018-12-19T01:56:58.234Z,94.89
2018-12-19T01:57:58.248Z,95.55
2018-12-19T01:58:58.265Z,95.46
2018-12-19T01:59:58.278Z,95.07
2018-12-19T02:00:58.294Z,96.12
2018-12-19T02:01:58.311Z,95.07
2018-12-19T02:02:58.325Z,95.55
2018-12-19T02:03:58.341Z,95.27
2018-12-19T02:04:58.354Z,94.42
2018-12-19T02:05:58.371Z,94.42
2018-12-19T02:06:58.387Z,94.70
2018-12-19T02:07:58.399Z,94.51
2018-12-19T02:08:58.417Z,94.51
2018-12-19T02:09:58.431Z,94.51
2018-12-19T02:10:58.445Z,94.70
2018-12-19T02:11:58.460Z,94.32
2018-12-19T02:12:58.478Z,94.03
2018-12-19T02:13:58.492Z,94.70
2018-12-19T02:14:58.505Z,94.70
2018-12-19T02:15:58.524Z,93.65
2018-12-19T02:16:58.535Z,93.94
2018-12-19T02:17:58.553Z,93.84
2018-12-19T02:18:58.566Z,94.03
2018-12-19T02:19:58.581Z,93.89
2018-12-19T02:20:58.598Z,94.23
2018-12-19T02:21:58.611Z,94.08
2018-12-19T02:22:58.629Z,94.03
2018-12-19T02:23:58.643Z,93.94
2018-12-19T02:24:58.656Z,94.08
2018-12-19T02:25:58.672Z,93.60
2018-12-19T02:26:58.688Z,93.04
2018-12-19T02:27:58.706Z,93.80
2018-12-19T02:28:58.717Z,93.41
2018-12-19T02:29:58.735Z,93.80
2018-12-19T02:30:58.752Z,93.99
2018-12-19T02:31:58.769Z,93.70
2018-12-19T02:32:58.781Z,93.89
2018-12-19T02:33:58.795Z,93.70
2018-12-19T02:34:58.813Z,93.70
2018-12-19T02:35:58.827Z,93.41
2018-12-19T02:36:58.841Z,93.13
2018-12-19T02:37:58.854Z,93.32
2018-12-19T02:38:58.873Z,93.32
2018-12-19T02:39:58.888Z,93.23
2018-12-19T02:40:58.900Z,93.13
2018-12-19T02:41:58.919Z,92.75
2018-12-19T02:42:58.934Z,92.94
2018-12-19T02:43:58.949Z,93.23
2018-12-19T02:44:58.963Z,92.94
2018-12-19T02:45:58.979Z,93.13
2018-12-19T02:46:59.007Z,93.70
2018-12-19T02:47:59.010Z,93.23
2018-12-19T02:48:59.022Z,93.13
2018-12-19T02:49:59.041Z,92.85
2018-12-19T02:50:59.052Z,93.04
2018-12-19T02:51:59.069Z,93.13
2018-12-19T02:52:59.085Z,92.94
2018-12-19T02:53:59.098Z,93.13
2018-12-19T02:54:59.118Z,93.23
2018-12-19T02:55:59.131Z,93.13
2018-12-19T02:56:59.143Z,93.13
2018-12-19T02:57:59.161Z,92.94
2018-12-19T02:58:59.176Z,92.66
2018-12-19T02:59:59.194Z,92.75
2018-12-19T03:00:59.207Z,92.56
2018-12-19T03:01:59.222Z,92.09
2018-12-19T03:02:59.237Z,92.37
2018-12-19T03:03:59.254Z,92.28
2018-12-19T03:04:59.268Z,92.37
2018-12-19T03:05:59.281Z,92.18
2018-12-19T03:06:59.297Z,92.66
2018-12-19T03:07:59.312Z,92.28
2018-12-19T03:08:59.327Z,92.66
2018-12-19T03:09:59.353Z,92.37
2018-12-19T03:10:59.361Z,92.47
2018-12-19T03:11:59.373Z,92.51
2018-12-19T03:12:59.387Z,91.66
2018-12-19T03:13:59.407Z,91.94
2018-12-19T03:14:59.421Z,92.23
2018-12-19T03:15:59.438Z,91.85
2018-12-19T03:16:59.453Z,92.42
2018-12-19T03:17:59.469Z,92.71
2018-12-19T03:18:59.482Z,92.04
2018-12-19T03:19:59.498Z,91.66
2018-12-19T03:20:59.510Z,92.51
2018-12-19T03:21:59.527Z,92.61
2018-12-19T03:22:59.542Z,91.75
2018-12-19T03:23:59.559Z,91.85
2018-12-19T03:24:59.573Z,91.94
2018-12-19T03:25:59.590Z,91.75
2018-12-19T03:26:59.605Z,91.28
2018-12-19T03:27:59.622Z,90.99
2018-12-19T03:28:59.635Z,91.19
2018-12-19T03:29:59.654Z,91.47
2018-12-19T03:30:59.668Z,91.38
2018-12-19T03:31:59.687Z,91.19
2018-12-19T03:32:59.700Z,91.38
2018-12-19T03:33:59.716Z,90.99
2018-12-19T03:34:59.730Z,91.19
2018-12-19T03:36:00.357Z,91.47
2018-12-19T03:36:59.762Z,90.99
2018-12-19T03:37:59.778Z,91.19
2018-12-19T03:38:59.794Z,91.19
2018-12-19T03:39:59.811Z,90.90
2018-12-19T03:40:59.824Z,91.75
2018-12-19T03:41:59.839Z,91.38
2018-12-19T03:42:59.859Z,91.28
2018-12-19T03:43:59.871Z,91.19
2018-12-19T03:44:59.887Z,91.19
2018-12-19T03:45:59.902Z,90.90
2018-12-19T03:46:59.922Z,91.28
2018-12-19T03:47:59.935Z,90.90
2018-12-19T03:48:59.951Z,91.66
2018-12-19T03:49:59.968Z,90.71
2018-12-19T03:50:59.984Z,90.61
2018-12-19T03:51:59.997Z,90.71
2018-12-19T03:53:00.012Z,91.09
2018-12-19T03:54:00.028Z,90.71
2018-12-19T03:55:00.051Z,90.52
2018-12-19T03:56:00.064Z,90.33
2018-12-19T03:57:00.076Z,90.05
2018-12-19T03:58:00.092Z,89.86
2018-12-19T03:59:00.109Z,90.19
2018-12-19T04:00:00.145Z,90.33
2018-12-19T04:01:00.141Z,90.05
2018-12-19T04:02:00.157Z,89.90
2018-12-19T04:03:00.175Z,90.14
2018-12-19T04:04:00.190Z,90.09
2018-12-19T04:05:00.203Z,90.14
2018-12-19T04:06:00.221Z,89.67
2018-12-19T04:07:00.237Z,90.14
2018-12-19T04:08:00.253Z,90.52
2018-12-19T04:09:00.270Z,89.95
2018-12-19T04:10:00.287Z,90.14
2018-12-19T04:11:00.303Z,90.61
2018-12-19T04:12:00.314Z,90.47
2018-12-19T04:13:00.332Z,90.61
2018-12-19T04:14:00.348Z,90.71
2018-12-19T04:15:00.362Z,91.38
2018-12-19T04:16:00.380Z,91.75
2018-12-19T04:17:00.394Z,91.09
2018-12-19T04:18:00.409Z,91.38
2018-12-19T04:19:00.427Z,91.75
2018-12-19T04:20:00.443Z,91.47
2018-12-19T04:21:00.461Z,91.56
2018-12-19T04:22:00.476Z,91.56
2018-12-19T04:23:00.490Z,92.04
2018-12-19T04:24:00.506Z,91.94
2018-12-19T04:25:00.519Z,92.51
2018-12-19T04:26:00.539Z,92.71
2018-12-19T04:27:00.553Z,92.71
2018-12-19T04:28:00.568Z,92.61
2018-12-19T04:29:00.586Z,92.61
2018-12-19T04:30:00.599Z,92.71
2018-12-19T04:31:00.618Z,92.90
2018-12-19T04:32:00.633Z,92.90
2018-12-19T04:33:00.649Z,93.18
2018-12-19T04:34:00.664Z,93.75
2018-12-19T04:35:00.681Z,93.56
2018-12-19T04:36:00.695Z,93.65
2018-12-19T04:37:00.713Z,93.94
2018-12-19T04:38:00.728Z,93.94
2018-12-19T04:39:00.742Z,94.13
2018-12-19T04:40:05.467Z,94.42
2018-12-19T04:41:00.773Z,94.79
2018-12-19T04:42:00.789Z,94.79
2018-12-19T04:43:00.807Z,94.42
2018-12-19T04:44:00.823Z,94.70
2018-12-19T04:45:00.839Z,94.89
2018-12-19T04:46:00.856Z,94.60
2018-12-19T04:47:00.872Z,95.27
2018-12-19T04:48:00.888Z,95.36
2018-12-19T04:49:00.903Z,95.46
2018-12-19T04:50:00.919Z,95.27
2018-12-19T04:51:00.934Z,95.94
2018-12-19T04:52:00.951Z,95.84
2018-12-19T04:53:00.964Z,95.94
2018-12-19T04:54:00.980Z,96.60
2018-12-19T04:55:00.997Z,96.60
2018-12-19T04:56:01.013Z,96.60
2018-12-19T04:57:01.028Z,96.22
2018-12-19T04:58:01.061Z,95.94
2018-12-19T04:59:01.059Z,96.12
2018-12-19T05:00:01.129Z,96.69
2018-12-19T05:01:01.090Z,97.45
2018-12-19T05:02:01.109Z,97.27
2018-12-19T05:03:01.121Z,96.88
2018-12-19T05:04:01.141Z,96.60
2018-12-19T05:05:01.155Z,97.17
2018-12-19T05:06:01.473Z,97.36
2018-12-19T05:07:01.185Z,97.27
2018-12-19T05:08:01.202Z,98.02
2018-12-19T05:09:01.216Z,98.02
2018-12-19T05:10:01.231Z,98.21
2018-12-19T05:11:01.255Z,98.02
2018-12-19T05:12:01.263Z,98.59
2018-12-19T05:13:01.452Z,99.07
2018-12-19T05:14:01.296Z,98.02
2018-12-19T05:15:01.313Z,98.21
2018-12-19T05:16:01.329Z,98.21
2018-12-19T05:17:01.342Z,98.69
2018-12-19T05:18:01.363Z,99.07
2018-12-19T05:19:01.374Z,99.07
2018-12-19T05:20:01.393Z,98.97
2018-12-19T05:21:01.408Z,99.64
2018-12-19T05:22:01.471Z,99.64
2018-12-19T05:23:01.436Z,99.44
2018-12-19T05:24:01.452Z,99.73
2018-12-19T05:25:01.478Z,99.64
2018-12-19T05:26:01.486Z,99.99
2018-12-19T05:27:01.501Z,99.99
2018-12-19T05:28:01.515Z,99.99
2018-12-19T05:29:01.532Z,99.99
2018-12-19T05:30:01.549Z,99.99
2018-12-19T05:31:01.564Z,99.99
2018-12-19T05:32:01.584Z,99.99
2018-12-19T05:33:01.594Z,99.99
2018-12-19T05:34:01.611Z,99.99
2018-12-19T05:35:01.661Z,99.99
2018-12-19T05:36:01.643Z,99.99
2018-12-19T05:37:01.658Z,99.99
2018-12-19T05:38:01.674Z,99.99
2018-12-19T05:39:01.690Z,99.99
2018-12-19T05:40:01.706Z,99.99
2018-12-19T05:41:01.724Z,99.99
2018-12-19T05:42:01.739Z,99.99
2018-12-19T05:43:01.750Z,99.99
2018-12-19T05:44:01.770Z,99.99
2018-12-19T05:45:01.783Z,99.99
2018-12-19T05:46:01.800Z,99.99
2018-12-19T05:47:01.817Z,99.99
2018-12-19T05:48:01.830Z,99.99
2018-12-19T05:49:01.845Z,99.99
2018-12-19T05:50:01.862Z,99.99
2018-12-19T05:51:01.881Z,99.99
2018-12-19T05:52:01.896Z,99.99
2018-12-19T05:53:01.911Z,99.99
2018-12-19T05:54:01.928Z,99.99
2018-12-19T05:55:01.940Z,99.99
2018-12-19T05:56:01.958Z,99.99
2018-12-19T05:57:01.971Z,99.99
2018-12-19T05:58:01.989Z,99.99
2018-12-19T05:59:02.006Z,99.99
2018-12-19T06:00:02.023Z,99.99
2018-12-19T06:01:02.034Z,99.99
2018-12-19T06:02:02.051Z,99.99
2018-12-19T06:03:02.069Z,99.99
2018-12-19T06:04:02.086Z,99.99
2018-12-19T06:05:02.097Z,99.99
2018-12-19T06:06:02.113Z,99.99
2018-12-19T06:07:02.131Z,99.99
2018-12-19T06:08:02.147Z,99.99
2018-12-19T06:09:02.160Z,99.99
2018-12-19T06:10:02.178Z,99.99
2018-12-19T06:11:02.197Z,99.99
2018-12-19T06:12:02.210Z,99.99
2018-12-19T06:13:02.226Z,99.99
2018-12-19T06:14:02.242Z,99.99
2018-12-19T06:15:02.256Z,99.99
2018-12-19T06:16:02.275Z,99.99
2018-12-19T06:17:02.289Z,99.99
2018-12-19T06:18:02.304Z,99.99
2018-12-19T06:19:02.324Z,99.99
2018-12-19T06:20:02.341Z,99.99
2018-12-19T06:21:02.353Z,99.99
2018-12-19T06:22:02.369Z,99.99
2018-12-19T06:23:02.388Z,99.99
2018-12-19T06:24:02.401Z,99.99
2018-12-19T06:25:02.415Z,99.99
2018-12-19T06:26:02.431Z,99.99
2018-12-19T06:27:02.449Z,99.99
2018-12-19T06:28:02.466Z,99.99
2018-12-19T06:29:02.478Z,99.99
2018-12-19T06:30:02.495Z,99.99
2018-12-19T06:31:02.511Z,99.99
2018-12-19T06:32:02.531Z,99.99
2018-12-19T06:33:02.599Z,99.99
2018-12-19T06:34:02.560Z,99.99
2018-12-19T06:35:02.577Z,99.99
2018-12-19T06:36:02.593Z,99.99
2018-12-19T06:37:02.609Z,99.99
2018-12-19T06:38:02.625Z,99.99
2018-12-19T06:39:02.639Z,99.99
2018-12-19T06:40:02.657Z,99.99
2018-12-19T06:41:02.672Z,99.99
2018-12-19T06:42:02.689Z,99.99
2018-12-19T06:43:02.704Z,99.99
2018-12-19T06:44:02.720Z,99.99
2018-12-19T06:45:02.735Z,99.99
2018-12-19T06:46:02.754Z,99.99
2018-12-19T06:47:02.771Z,99.99
2018-12-19T06:48:02.788Z,99.99
2018-12-19T06:49:02.803Z,99.99
2018-12-19T06:50:02.817Z,99.99
2018-12-19T06:51:02.835Z,99.99
2018-12-19T06:52:02.851Z,99.99
2018-12-19T06:53:02.867Z,99.99
2018-12-19T06:54:02.884Z,99.99
2018-12-19T06:55:02.899Z,99.99
2018-12-19T06:56:02.918Z,99.99
2018-12-19T06:57:02.929Z,99.99
2018-12-19T06:58:02.950Z,99.99
2018-12-19T06:59:02.965Z,99.99
2018-12-19T07:00:02.979Z,99.99
2018-12-19T07:01:02.995Z,99.99
2018-12-19T07:02:03.013Z,99.99
2018-12-19T07:03:03.029Z,99.99
2018-12-19T07:04:03.898Z,99.99
2018-12-19T07:05:03.059Z,99.99
2018-12-19T07:06:03.080Z,99.99
2018-12-19T07:07:03.092Z,99.99
2018-12-19T07:08:03.108Z,99.99
2018-12-19T07:09:03.126Z,99.99
2018-12-19T07:10:03.140Z,99.99
2018-12-19T07:11:03.157Z,99.99
2018-12-19T07:12:03.174Z,99.99
2018-12-19T07:13:03.190Z,99.99
2018-12-19T07:14:03.208Z,99.99
2018-12-19T07:15:03.224Z,99.99
2018-12-19T07:16:03.238Z,99.99
2018-12-19T07:17:03.255Z,99.99
2018-12-19T07:18:03.273Z,99.99
2018-12-19T07:19:03.288Z,99.99
2018-12-19T07:20:03.308Z,99.99
2018-12-19T07:21:03.320Z,99.99
2018-12-19T07:22:03.334Z,99.99
2018-12-19T07:23:03.353Z,99.99
2018-12-19T07:24:03.373Z,99.99
2018-12-19T07:25:03.389Z,99.99
2018-12-19T07:26:03.403Z,99.99
2018-12-19T07:27:03.415Z,99.99
2018-12-19T07:28:03.435Z,99.99
2018-12-19T07:29:03.451Z,99.99
2018-12-19T07:30:03.467Z,99.99
2018-12-19T07:31:03.483Z,99.99
2018-12-19T07:32:03.497Z,99.99
2018-12-19T07:33:03.514Z,99.99
2018-12-19T07:34:03.532Z,99.99
2018-12-19T07:35:03.550Z,99.99
2018-12-19T07:36:03.564Z,99.99
2018-12-19T07:37:03.577Z,99.99
2018-12-19T07:38:03.597Z,99.99
2018-12-19T07:39:03.612Z,99.99
2018-12-19T07:40:03.630Z,99.99
2018-12-19T07:41:03.642Z,99.99
2018-12-19T07:42:03.658Z,99.99
2018-12-19T07:43:03.677Z,99.99
2018-12-19T07:44:03.691Z,99.99
2018-12-19T07:45:03.707Z,99.99
2018-12-19T07:46:03.722Z,99.99
2018-12-19T07:47:03.790Z,99.99
2018-12-19T07:48:03.756Z,99.99
2018-12-19T07:49:03.773Z,99.99
2018-12-19T07:50:03.789Z,99.99
2018-12-19T07:51:03.806Z,99.99
2018-12-19T07:52:03.922Z,99.99
2018-12-19T07:53:03.835Z,99.99
2018-12-19T07:54:03.861Z,99.99
2018-12-19T07:55:03.870Z,99.99
2018-12-19T07:56:03.885Z,99.99
2018-12-19T07:57:03.902Z,99.99
2018-12-19T07:58:03.916Z,99.99
2018-12-19T07:59:03.934Z,99.99
2018-12-19T08:00:03.950Z,99.99
2018-12-19T08:01:03.967Z,99.99
2018-12-19T08:02:03.983Z,99.99
2018-12-19T08:03:03.998Z,99.99
2018-12-19T08:04:04.015Z,99.99
2018-12-19T08:05:04.032Z,99.99
2018-12-19T08:06:04.048Z,99.99
2018-12-19T08:07:04.065Z,99.99
2018-12-19T08:08:04.082Z,99.99
2018-12-19T08:09:04.094Z,99.99
2018-12-19T08:10:04.112Z,99.99
2018-12-19T08:11:04.128Z,99.99
2018-12-19T08:12:04.147Z,99.99
2018-12-19T08:13:04.159Z,99.99
2018-12-19T08:14:04.179Z,99.99
2018-12-19T08:15:04.192Z,99.99
2018-12-19T08:16:04.210Z,99.99
2018-12-19T08:17:04.224Z,99.99
2018-12-19T08:18:05.646Z,99.99
2018-12-19T08:19:04.259Z,99.99
2018-12-19T08:20:04.278Z,99.99
2018-12-19T08:21:04.293Z,99.99
2018-12-19T08:22:04.308Z,99.99
2018-12-19T08:23:04.325Z,99.99
2018-12-19T08:24:04.341Z,99.99
2018-12-19T08:25:04.357Z,99.99
2018-12-19T08:26:04.370Z,99.99
2018-12-19T08:27:04.393Z,99.99
2018-12-19T08:28:04.402Z,99.99
2018-12-19T08:29:04.420Z,99.99
2018-12-19T08:30:04.437Z,99.99
2018-12-19T08:31:04.455Z,99.99
2018-12-19T08:32:04.470Z,99.99
2018-12-19T08:33:04.485Z,99.99
2018-12-19T08:34:04.500Z,99.99
2018-12-19T08:35:04.521Z,99.99
2018-12-19T08:36:04.533Z,99.99
2018-12-19T08:37:04.547Z,99.99
2018-12-19T08:38:04.564Z,99.99
2018-12-19T08:39:04.584Z,99.99
2018-12-19T08:40:04.597Z,99.99
2018-12-19T08:41:04.612Z,99.99
2018-12-19T08:42:04.629Z,99.99
2018-12-19T08:43:04.645Z,99.99
2018-12-19T08:44:04.664Z,99.99
2018-12-19T08:45:04.679Z,99.99
2018-12-19T08:46:04.694Z,99.99
2018-12-19T08:47:04.712Z,99.99
2018-12-19T08:48:04.728Z,99.99
2018-12-19T08:49:04.741Z,99.99
2018-12-19T08:50:05.064Z,99.99
2018-12-19T08:51:04.777Z,99.99
2018-12-19T08:52:04.791Z,99.99
2018-12-19T08:53:04.809Z,99.99
2018-12-19T08:54:04.824Z,99.99
2018-12-19T08:55:04.840Z,99.99
2018-12-19T08:56:04.862Z,99.99
2018-12-19T08:57:04.875Z,99.99
2018-12-19T08:58:04.891Z,99.99
2018-12-19T08:59:04.910Z,99.99
2018-12-19T09:00:05.007Z,99.99
2018-12-19T09:01:04.962Z,99.99
2018-12-19T09:02:04.956Z,99.99
2018-12-19T09:03:04.972Z,99.99
2018-12-19T09:04:04.991Z,99.99
2018-12-19T09:05:05.002Z,99.99
2018-12-19T09:06:05.018Z,99.99
2018-12-19T09:07:05.039Z,99.99
2018-12-19T09:08:05.051Z,99.99
2018-12-19T09:09:05.070Z,99.99
2018-12-19T09:10:05.136Z,99.99
2018-12-19T09:11:05.812Z,99.99
2018-12-19T09:12:05.116Z,99.99
2018-12-19T09:13:05.132Z,99.99
2018-12-19T09:14:05.149Z,99.99
2018-12-19T09:15:05.167Z,99.99
2018-12-19T09:16:05.181Z,99.99
2018-12-19T09:17:05.200Z,99.99
2018-12-19T09:18:05.214Z,99.99
2018-12-19T09:19:05.232Z,99.99
2018-12-19T09:20:05.246Z,99.99
2018-12-19T09:21:05.265Z,99.99
2018-12-19T09:22:05.281Z,99.99
2018-12-19T09:23:05.295Z,99.99
2018-12-19T09:24:05.316Z,99.99
2018-12-19T09:25:05.329Z,99.99
2018-12-19T09:26:05.400Z,99.99
2018-12-19T09:27:05.366Z,99.99
2018-12-19T09:28:05.378Z,99.99
2018-12-19T09:29:05.392Z,99.99
2018-12-19T09:30:05.411Z,99.99
2018-12-19T09:31:05.426Z,99.99
2018-12-19T09:32:05.443Z,99.99
2018-12-19T09:33:05.463Z,99.99
2018-12-19T09:34:05.477Z,99.99
2018-12-19T09:35:05.493Z,99.99
2018-12-19T09:36:05.508Z,99.99
2018-12-19T09:37:05.525Z,99.99
2018-12-19T09:38:05.539Z,99.99
2018-12-19T09:39:05.560Z,99.99
2018-12-19T09:40:05.576Z,99.99
2018-12-19T09:41:12.111Z,99.99
2018-12-19T09:42:05.608Z,99.99
2018-12-19T09:43:05.624Z,99.99
2018-12-19T09:44:05.639Z,99.99
2018-12-19T09:45:05.656Z,99.99
2018-12-19T09:46:05.673Z,99.99
2018-12-19T09:47:05.687Z,99.99
2018-12-19T09:48:05.704Z,99.99
2018-12-19T09:49:12.222Z,99.99
2018-12-19T09:50:05.737Z,99.99
2018-12-19T09:51:05.753Z,99.99
2018-12-19T09:52:05.770Z,99.99
2018-12-19T09:53:05.786Z,99.99
2018-12-19T09:54:05.802Z,99.99
2018-12-19T09:55:05.819Z,99.99
2018-12-19T09:56:05.836Z,99.99
2018-12-19T09:57:05.955Z,99.99
2018-12-19T09:58:05.869Z,99.99
2018-12-19T09:59:05.889Z,99.99
2018-12-19T10:00:05.902Z,99.99
2018-12-19T10:01:06.033Z,99.99
2018-12-19T10:02:06.050Z,99.99
2018-12-19T10:03:05.954Z,99.99
2018-12-19T10:04:05.976Z,99.99
2018-12-19T10:05:05.989Z,99.99
2018-12-19T10:06:06.002Z,99.99
2018-12-19T10:07:06.021Z,99.99
2018-12-19T10:08:06.041Z,99.99
2018-12-19T10:09:07.568Z,99.99
2018-12-19T10:10:06.068Z,99.99
2018-12-19T10:11:06.088Z,99.99
2018-12-19T10:12:06.166Z,99.99
2018-12-19T10:13:06.121Z,99.99
2018-12-19T10:14:06.139Z,99.99
2018-12-19T10:15:06.154Z,99.99
2018-12-19T10:16:06.170Z,99.99
2018-12-19T10:17:06.193Z,99.99
2018-12-19T10:18:06.232Z,99.99
2018-12-19T10:19:06.220Z,99.99
2018-12-19T10:20:06.256Z,99.99
2018-12-19T10:21:06.271Z,99.99
2018-12-19T10:22:06.275Z,99.99
2018-12-19T10:23:06.291Z,99.99
2018-12-19T10:24:06.304Z,99.99
2018-12-19T10:25:06.322Z,99.99
2018-12-19T10:26:06.339Z,99.99
2018-12-19T10:27:06.358Z,99.99
2018-12-19T10:28:06.375Z,99.99
2018-12-19T10:29:06.400Z,99.99
2018-12-19T10:30:06.410Z,99.99
2018-12-19T10:31:06.425Z,99.99
2018-12-19T10:32:06.440Z,99.99
2018-12-19T10:33:06.460Z,99.99
2018-12-19T10:34:06.477Z,99.99
2018-12-19T10:35:06.492Z,99.99
2018-12-19T10:36:06.512Z,99.99
2018-12-19T10:37:07.556Z,99.99
2018-12-19T10:38:06.543Z,99.99
2018-12-19T10:39:06.560Z,99.99
2018-12-19T10:40:06.577Z,99.99
2018-12-19T10:41:06.593Z,99.99
2018-12-19T10:42:06.613Z,99.99
2018-12-19T10:43:06.630Z,99.99
2018-12-19T10:44:06.723Z,99.99
2018-12-19T10:45:06.661Z,99.99
2018-12-19T10:46:06.681Z,99.99
2018-12-19T10:47:06.698Z,99.99
2018-12-19T10:48:06.715Z,99.99
2018-12-19T10:49:06.731Z,99.99
2018-12-19T10:50:06.746Z,99.99
2018-12-19T10:51:06.767Z,99.99
2018-12-19T10:52:06.784Z,99.99
2018-12-19T10:53:06.797Z,99.99
2018-12-19T10:54:06.815Z,99.99
2018-12-19T10:55:06.835Z,99.99
2018-12-19T10:56:06.852Z,99.99
2018-12-19T10:57:06.866Z,99.99
2018-12-19T10:58:06.888Z,99.99
2018-12-19T10:59:06.901Z,99.99
2018-12-19T11:00:06.921Z,99.99
2018-12-19T11:01:06.934Z,99.99
2018-12-19T11:02:06.952Z,99.99
2018-12-19T11:03:06.971Z,99.99
2018-12-19T11:04:06.990Z,99.99
2018-12-19T11:05:07.003Z,99.99
2018-12-19T11:06:07.024Z,99.99
2018-12-19T11:07:07.038Z,99.99
2018-12-19T11:08:07.058Z,99.99
2018-12-19T11:09:07.074Z,99.99
2018-12-19T11:10:07.091Z,99.99
2018-12-19T11:11:07.107Z,99.99
2018-12-19T11:12:07.127Z,99.99
2018-12-19T11:13:07.144Z,99.99
2018-12-19T11:14:07.158Z,99.99
2018-12-19T11:15:07.328Z,99.99
2018-12-19T11:16:07.192Z,99.99
2018-12-19T11:17:07.211Z,99.99
2018-12-19T11:18:07.226Z,99.99
2018-12-19T11:19:07.246Z,99.99
2018-12-19T11:20:07.264Z,99.99
2018-12-19T11:21:07.278Z,99.99
2018-12-19T11:22:07.296Z,99.99
2018-12-19T11:23:07.312Z,99.99
2018-12-19T11:24:07.331Z,99.99
2018-12-19T11:25:07.349Z,99.99
2018-12-19T11:26:07.364Z,99.99
2018-12-19T11:27:07.386Z,99.99
2018-12-19T11:28:07.400Z,99.99
2018-12-19T11:29:07.419Z,99.99
2018-12-19T11:30:07.434Z,99.99
2018-12-19T11:31:07.450Z,99.99
2018-12-19T11:32:07.474Z,99.99
2018-12-19T11:33:07.484Z,99.99
2018-12-19T11:34:07.503Z,99.99
2018-12-19T11:35:07.519Z,99.99
2018-12-19T11:36:07.540Z,99.99
2018-12-19T11:37:07.557Z,99.99
2018-12-19T11:38:07.572Z,99.99
2018-12-19T11:39:07.611Z,99.99
2018-12-19T11:40:07.606Z,99.99
2018-12-19T11:41:07.625Z,99.99
2018-12-19T11:42:07.642Z,99.99
2018-12-19T11:43:07.659Z,99.99
2018-12-19T11:44:07.798Z,99.99
2018-12-19T11:45:07.739Z,99.99
2018-12-19T11:46:07.710Z,99.99
2018-12-19T11:47:07.728Z,99.99
2018-12-19T11:48:07.745Z,99.99
2018-12-19T11:49:07.761Z,99.99
2018-12-19T11:50:07.779Z,99.99
2018-12-19T11:51:07.799Z,99.99
2018-12-19T11:52:07.814Z,99.99
2018-12-19T11:53:07.833Z,99.99
2018-12-19T11:54:07.852Z,99.99
2018-12-19T11:55:07.869Z,99.99
2018-12-19T11:56:07.884Z,99.99
2018-12-19T11:57:07.903Z,99.99
2018-12-19T11:58:07.921Z,99.99
2018-12-19T11:59:07.936Z,99.99
2018-12-19T12:00:07.954Z,99.99
2018-12-19T12:01:07.970Z,99.99
2018-12-19T12:02:07.990Z,99.99
2018-12-19T12:03:08.008Z,99.99
2018-12-19T12:04:08.025Z,99.99
2018-12-19T12:05:08.042Z,99.99
2018-12-19T12:06:08.061Z,99.99
2018-12-19T12:07:08.126Z,99.99
2018-12-19T12:08:08.098Z,99.99
2018-12-19T12:09:08.111Z,99.99
2018-12-19T12:10:08.130Z,99.99
2018-12-19T12:11:08.149Z,99.99
2018-12-19T12:12:08.169Z,99.99
2018-12-19T12:13:08.183Z,99.99
2018-12-19T12:14:08.201Z,99.99
2018-12-19T12:15:08.217Z,99.99
2018-12-19T12:16:08.237Z,99.99
2018-12-19T12:17:08.908Z,99.99
2018-12-19T12:18:08.270Z,99.99
2018-12-19T12:19:08.288Z,99.99
2018-12-19T12:20:08.305Z,99.99
2018-12-19T12:21:08.321Z,99.99
2018-12-19T12:22:08.342Z,99.99
2018-12-19T12:23:08.363Z,99.99
2018-12-19T12:24:08.377Z,99.99
2018-12-19T12:25:08.392Z,99.99
2018-12-19T12:26:08.413Z,99.99
2018-12-19T12:27:08.427Z,99.99
2018-12-19T12:28:08.448Z,99.99
2018-12-19T12:29:08.468Z,99.99
2018-12-19T12:30:08.483Z,99.99
2018-12-19T12:31:08.502Z,99.99
2018-12-19T12:32:08.516Z,99.99
2018-12-19T12:33:08.539Z,99.99
2018-12-19T12:34:08.551Z,99.99
2018-12-19T12:35:08.569Z,99.99
2018-12-19T12:36:08.587Z,99.99
2018-12-19T12:37:08.606Z,99.99
2018-12-19T12:38:08.722Z,99.99
2018-12-19T12:39:08.644Z,99.99
2018-12-19T12:40:08.662Z,99.99
2018-12-19T12:41:08.677Z,99.99
2018-12-19T12:42:08.693Z,99.99
2018-12-19T12:43:08.712Z,99.99
2018-12-19T12:44:08.730Z,99.99
2018-12-19T12:45:08.747Z,99.99
2018-12-19T12:46:08.766Z,99.99
2018-12-19T12:47:08.784Z,99.99
2018-12-19T12:48:08.799Z,99.99
2018-12-19T12:49:10.826Z,99.99
2018-12-19T12:50:08.834Z,99.99
2018-12-19T12:51:08.854Z,99.99
2018-12-19T12:52:08.873Z,99.99
2018-12-19T12:53:08.937Z,99.99